createdAt,value
2022-11-30T00:00:36.327Z,97170.03
2022-11-30T00:03:03.158Z,97179.03
2022-11-30T00:05:29.566Z,97177.88
2022-11-30T00:08:08.983Z,97171.25
2022-11-30T00:10:35.504Z,97171.84
2022-11-30T00:13:01.888Z,97174.16
2022-11-30T00:15:28.232Z,97178.44
2022-11-30T00:17:57.669Z,97177.38
2022-11-30T00:20:25.822Z,97176.91
2022-11-30T00:22:52.143Z,97167.47
2022-11-30T00:25:19.461Z,97160.88
2022-11-30T00:27:45.822Z,97171.25
2022-11-30T00:30:12.519Z,97161.94
2022-11-30T00:32:38.930Z,97169.34
2022-11-30T00:35:05.352Z,97164.38
2022-11-30T00:37:34.285Z,97162.03
2022-11-30T00:40:00.601Z,97168.75
2022-11-30T00:42:27.058Z,97172.44
2022-11-30T00:44:53.403Z,97174.34
2022-11-30T00:47:19.811Z,97177.38
2022-11-30T00:49:46.118Z,97173.47
2022-11-30T00:52:12.509Z,97179.25
2022-11-30T00:54:38.828Z,97176.19
2022-11-30T00:57:05.206Z,97181.66
2022-11-30T00:59:32.710Z,97183.03
2022-11-30T01:01:59.041Z,97175.72
2022-11-30T01:04:25.475Z,97179.97
2022-11-30T01:06:51.787Z,97188.56
2022-11-30T01:09:18.110Z,97173.97
2022-11-30T01:11:44.431Z,97176.81
2022-11-30T01:14:10.754Z,97175.16
2022-11-30T01:16:37.097Z,97172.44
2022-11-30T01:19:04.043Z,97169.59
2022-11-30T01:21:30.464Z,97163.66
2022-11-30T01:23:56.800Z,97168.84
2022-11-30T01:26:23.714Z,97175.28
2022-11-30T01:28:53.545Z,97175.50
2022-11-30T01:31:21.443Z,97176.44
2022-11-30T01:33:52.227Z,97182.22
2022-11-30T01:36:20.217Z,97180.31
2022-11-30T01:38:47.857Z,97181.38
2022-11-30T01:41:15.482Z,97179.75
2022-11-30T01:43:41.811Z,97177.84
2022-11-30T01:46:20.377Z,97172.91
2022-11-30T01:48:50.819Z,97183.53
2022-11-30T01:51:17.126Z,97175.50
2022-11-30T01:53:43.449Z,97180.47
2022-11-30T01:56:09.864Z,97180.13
2022-11-30T01:58:36.705Z,97182.47
2022-11-30T02:01:03.990Z,97185.50
2022-11-30T02:03:34.688Z,97181.66
2022-11-30T02:06:01.083Z,97185.53
2022-11-30T02:08:28.518Z,97182.34
2022-11-30T02:10:58.342Z,97180.94
2022-11-30T02:13:38.435Z,97186.50
2022-11-30T02:16:23.471Z,97185.88
2022-11-30T02:18:56.038Z,97187.56
2022-11-30T02:21:30.064Z,97185.66
2022-11-30T02:24:05.838Z,97184.25
2022-11-30T02:26:42.897Z,97185.66
2022-11-30T02:29:24.652Z,97190.63
2022-11-30T02:31:54.919Z,97197.47
2022-11-30T02:34:22.097Z,97193.81
2022-11-30T02:36:58.985Z,97199.81
2022-11-30T02:39:25.498Z,97198.66
2022-11-30T02:41:51.834Z,97199.59
2022-11-30T02:44:19.295Z,97202.69
2022-11-30T02:47:01.103Z,97205.88
2022-11-30T02:49:37.556Z,97210.84
2022-11-30T02:52:05.096Z,97211.03
2022-11-30T02:54:31.862Z,97201.47
2022-11-30T02:57:00.172Z,97200.19
2022-11-30T02:59:26.746Z,97210.34
2022-11-30T03:01:54.097Z,97209.06
2022-11-30T03:04:20.537Z,97210.22
2022-11-30T03:06:46.844Z,97211.06
2022-11-30T03:09:14.268Z,97215.19
2022-11-30T03:11:40.575Z,97212.09
2022-11-30T03:14:06.889Z,97208.09
2022-11-30T03:16:33.551Z,97209.06
2022-11-30T03:19:06.236Z,97212.13
2022-11-30T03:21:32.744Z,97218.03
2022-11-30T03:24:03.268Z,97216.13
2022-11-30T03:26:29.577Z,97219.44
2022-11-30T03:28:55.906Z,97218.25
2022-11-30T03:31:22.307Z,97215.88
2022-11-30T03:33:48.720Z,97211.75
2022-11-30T03:36:15.079Z,97223.19
2022-11-30T03:38:41.395Z,97215.78
2022-11-30T03:41:12.228Z,97223.81
2022-11-30T03:43:38.573Z,97229.47
2022-11-30T03:46:05.192Z,97222.84
2022-11-30T03:48:36.008Z,97228.41
2022-11-30T03:51:02.563Z,97222.28
2022-11-30T03:53:28.887Z,97222.72
2022-11-30T03:55:56.590Z,97219.44
2022-11-30T03:58:23.712Z,97217.66
2022-11-30T04:00:50.614Z,97221.06
2022-11-30T04:03:17.000Z,97220.59
2022-11-30T04:05:43.665Z,97222.88
2022-11-30T04:08:09.996Z,97223.66
2022-11-30T04:10:36.369Z,97222.03
2022-11-30T04:13:02.699Z,97219.91
2022-11-30T04:15:32.064Z,97225.81
2022-11-30T04:17:58.434Z,97225.44
2022-11-30T04:20:27.244Z,97227.25
2022-11-30T04:22:53.622Z,97227.94
2022-11-30T04:25:19.975Z,97221.81
2022-11-30T04:27:47.747Z,97234.53
2022-11-30T04:30:14.581Z,97232.16
2022-11-30T04:32:41.006Z,97235.00
2022-11-30T04:35:07.594Z,97229.13
2022-11-30T04:37:33.917Z,97229.81
2022-11-30T04:40:00.323Z,97235.38
2022-11-30T04:42:26.646Z,97239.03
2022-11-30T04:44:54.975Z,97226.63
2022-11-30T04:47:21.297Z,97234.28
2022-11-30T04:49:50.809Z,97230.03
2022-11-30T04:52:17.127Z,97238.53
2022-11-30T04:54:43.440Z,97240.56
2022-11-30T04:57:09.814Z,97239.84
2022-11-30T04:59:36.135Z,97235.94
2022-11-30T05:02:02.529Z,97237.59
2022-11-30T05:04:30.002Z,97246.31
2022-11-30T05:06:56.354Z,97248.06
2022-11-30T05:09:22.740Z,97253.63
2022-11-30T05:11:49.614Z,97244.41
2022-11-30T05:14:16.008Z,97255.47
2022-11-30T05:16:42.321Z,97256.69
2022-11-30T05:19:08.731Z,97249.75
2022-11-30T05:21:35.043Z,97246.41
2022-11-30T05:24:01.365Z,97245.16
2022-11-30T05:26:27.723Z,97247.38
2022-11-30T05:28:55.608Z,97254.09
2022-11-30T05:31:22.066Z,97254.22
2022-11-30T05:33:51.717Z,97251.88
2022-11-30T05:36:18.113Z,97263.31
2022-11-30T05:38:44.699Z,97263.78
2022-11-30T05:41:11.545Z,97254.56
2022-11-30T05:43:37.945Z,97254.09
2022-11-30T05:46:05.486Z,97256.78
2022-11-30T05:48:38.988Z,97261.50
2022-11-30T05:51:06.593Z,97258.66
2022-11-30T05:53:33.116Z,97254.41
2022-11-30T05:56:06.372Z,97261.72
2022-11-30T05:58:33.265Z,97273.69
2022-11-30T06:01:01.717Z,97274.16
2022-11-30T06:03:29.382Z,97269.41
2022-11-30T06:05:55.731Z,97274.81
2022-11-30T06:08:35.308Z,97262.78
2022-11-30T06:11:01.708Z,97270.56
2022-11-30T06:13:29.196Z,97268.53
2022-11-30T06:15:58.272Z,97264.63
2022-11-30T06:18:24.598Z,97256.84
2022-11-30T06:20:50.907Z,97266.56
2022-11-30T06:23:17.287Z,97272.09
2022-11-30T06:25:43.683Z,97267.97
2022-11-30T06:28:10.620Z,97265.84
2022-11-30T06:30:37.266Z,97272.56
2022-11-30T06:33:05.614Z,97273.16
2022-11-30T06:35:31.923Z,97274.13
2022-11-30T06:38:00.444Z,97280.25
2022-11-30T06:40:28.054Z,97281.88
2022-11-30T06:42:54.898Z,97281.94
2022-11-30T06:45:21.210Z,97274.81
2022-11-30T06:47:47.569Z,97279.09
2022-11-30T06:50:14.631Z,97283.81
2022-11-30T06:52:40.949Z,97287.50
2022-11-30T06:55:08.022Z,97289.00
2022-11-30T06:57:34.968Z,97289.84
2022-11-30T07:00:01.302Z,97290.09
2022-11-30T07:02:27.697Z,97282.81
2022-11-30T07:04:54.084Z,97290.09
2022-11-30T07:07:20.433Z,97286.69
2022-11-30T07:09:47.828Z,97284.41
2022-11-30T07:12:14.160Z,97286.06
2022-11-30T07:14:40.501Z,97293.59
2022-11-30T07:17:06.852Z,97290.69
2022-11-30T07:19:42.058Z,97284.97
2022-11-30T07:22:08.367Z,97297.13
2022-11-30T07:24:53.187Z,97303.63
2022-11-30T07:27:22.496Z,97300.47
2022-11-30T07:29:51.435Z,97296.03
2022-11-30T07:32:18.031Z,97298.72
2022-11-30T07:34:44.518Z,97292.66
2022-11-30T07:37:11.403Z,97299.56
2022-11-30T07:39:38.193Z,97295.44
2022-11-30T07:42:04.548Z,97295.56
2022-11-30T07:44:30.879Z,97293.56
2022-11-30T07:46:57.269Z,97308.44
2022-11-30T07:49:23.584Z,97309.41
2022-11-30T07:51:50.158Z,97305.00
2022-11-30T07:54:16.503Z,97297.69
2022-11-30T07:56:42.833Z,97299.13
2022-11-30T07:59:09.356Z,97296.78
2022-11-30T08:01:37.824Z,97301.47
2022-11-30T08:04:04.469Z,97312.06
2022-11-30T08:06:31.427Z,97309.97
2022-11-30T08:08:59.143Z,97308.22
2022-11-30T08:11:27.195Z,97318.09
2022-11-30T08:14:03.313Z,97324.09
2022-11-30T08:16:31.123Z,97327.66
2022-11-30T08:18:58.058Z,97329.28
2022-11-30T08:21:24.462Z,97320.53
2022-11-30T08:23:51.906Z,97322.94
2022-11-30T08:26:28.787Z,97319.84
2022-11-30T08:28:55.134Z,97323.81
2022-11-30T08:31:23.386Z,97326.88
2022-11-30T08:33:50.057Z,97325.47
2022-11-30T08:36:20.668Z,97325.84
2022-11-30T08:38:48.033Z,97332.91
2022-11-30T08:41:15.477Z,97321.69
2022-11-30T08:43:42.267Z,97330.44
2022-11-30T08:46:34.838Z,97328.69
2022-11-30T08:49:12.936Z,97334.97
2022-11-30T08:52:15.507Z,97339.44
2022-11-30T08:54:29.883Z,97345.44
2022-11-30T08:57:01.263Z,97350.25
2022-11-30T08:59:27.581Z,97361.00
2022-11-30T09:01:53.933Z,97352.31
2022-11-30T09:04:20.268Z,97350.44
2022-11-30T09:06:46.579Z,97356.50
2022-11-30T09:09:13.658Z,97358.41
2022-11-30T09:11:46.270Z,97357.28
2022-11-30T09:14:12.576Z,97357.81
2022-11-30T09:16:38.974Z,97361.13
2022-11-30T09:19:05.348Z,97368.44
2022-11-30T09:21:31.822Z,97366.38
2022-11-30T09:23:59.206Z,97364.88
2022-11-30T09:26:25.753Z,97363.22
2022-11-30T09:28:52.619Z,97370.06
2022-11-30T09:31:20.447Z,97371.06
2022-11-30T09:33:47.292Z,97366.09
2022-11-30T09:36:15.032Z,97364.00
2022-11-30T09:38:44.347Z,97366.47
2022-11-30T09:41:29.608Z,97366.13
2022-11-30T09:44:03.364Z,97366.75
2022-11-30T09:46:41.764Z,97368.81
2022-11-30T09:49:18.878Z,97368.41
2022-11-30T09:51:46.408Z,97366.69
2022-11-30T09:54:16.359Z,97370.13
2022-11-30T09:56:43.149Z,97368.59
2022-11-30T09:59:24.854Z,97376.19
2022-11-30T10:01:56.607Z,97369.56
2022-11-30T10:04:24.662Z,97363.91
2022-11-30T10:06:52.029Z,97363.34
2022-11-30T10:09:21.451Z,97366.13
2022-11-30T10:11:55.774Z,97361.22
2022-11-30T10:14:41.180Z,97351.94
2022-11-30T10:17:34.298Z,97355.78
2022-11-30T10:20:19.369Z,97361.09
2022-11-30T10:22:55.982Z,97354.34
2022-11-30T10:25:23.923Z,97351.16
2022-11-30T10:27:54.094Z,97355.78
2022-11-30T10:30:24.965Z,97349.75
2022-11-30T10:32:55.140Z,97351.09
2022-11-30T10:35:40.081Z,97347.28
2022-11-30T10:38:13.511Z,97343.44
2022-11-30T10:41:05.990Z,97344.38
2022-11-30T10:43:38.216Z,97339.00
2022-11-30T10:46:04.801Z,97342.63
2022-11-30T10:48:31.180Z,97342.84
2022-11-30T10:50:58.694Z,97340.41
2022-11-30T10:53:25.084Z,97342.06
2022-11-30T10:55:58.753Z,97335.69
2022-11-30T10:58:30.440Z,97337.53
2022-11-30T11:01:08.099Z,97335.63
2022-11-30T11:03:34.743Z,97333.13
2022-11-30T11:06:07.931Z,97333.13
2022-11-30T11:08:35.294Z,97332.91
2022-11-30T11:11:01.704Z,97333.13
2022-11-30T11:13:37.498Z,97335.81
2022-11-30T11:16:05.401Z,97335.91
2022-11-30T11:18:32.425Z,97335.53
2022-11-30T11:21:13.964Z,97330.72
2022-11-30T11:23:43.389Z,97334.16
2022-11-30T11:26:19.871Z,97337.19
2022-11-30T11:28:50.017Z,97338.81
2022-11-30T11:31:18.949Z,97339.00
2022-11-30T11:33:53.303Z,97337.25
2022-11-30T11:36:27.178Z,97339.69
2022-11-30T11:38:53.518Z,97334.16
2022-11-30T11:41:22.971Z,97333.16
2022-11-30T11:44:02.824Z,97337.56
2022-11-30T11:46:30.625Z,97334.28
2022-11-30T11:49:00.130Z,97339.66
2022-11-30T11:51:30.466Z,97330.50
2022-11-30T11:53:58.709Z,97326.28
2022-11-30T11:56:26.415Z,97323.41
2022-11-30T11:59:01.106Z,97326.03
2022-11-30T12:01:47.682Z,97324.66
2022-11-30T12:04:32.910Z,97326.50
2022-11-30T12:07:02.259Z,97319.91
2022-11-30T12:09:31.231Z,97326.03
2022-11-30T12:11:57.630Z,97330.50
2022-11-30T12:14:25.239Z,97332.34
2022-11-30T12:17:00.818Z,97332.25
2022-11-30T12:19:43.141Z,97337.25
2022-11-30T12:22:28.395Z,97340.56
2022-11-30T12:24:54.712Z,97344.66
2022-11-30T12:27:42.537Z,97344.16
2022-11-30T12:30:27.632Z,97340.56
2022-11-30T12:33:07.607Z,97337.03
2022-11-30T12:35:40.117Z,97339.63
2022-11-30T12:38:15.842Z,97327.81
2022-11-30T12:40:58.899Z,97336.66
2022-11-30T12:43:48.556Z,97331.31
2022-11-30T12:46:21.089Z,97337.63
2022-11-30T12:49:06.113Z,97337.47
2022-11-30T12:51:32.470Z,97344.88
2022-11-30T12:54:05.049Z,97340.66
2022-11-30T12:56:44.375Z,97342.06
2022-11-30T12:59:21.896Z,97349.56
2022-11-30T13:01:48.482Z,97344.06
2022-11-30T13:04:37.987Z,97350.00
2022-11-30T13:07:13.527Z,97332.94
2022-11-30T13:09:49.191Z,97350.00
2022-11-30T13:12:20.830Z,97343.44
2022-11-30T13:14:48.312Z,97344.19
2022-11-30T13:17:18.964Z,97343.88
2022-11-30T13:19:55.636Z,97348.72
2022-11-30T13:22:42.422Z,97344.75
2022-11-30T13:25:19.626Z,97352.13
2022-11-30T13:28:03.218Z,97348.28
2022-11-30T13:30:50.784Z,97352.44
2022-11-30T13:33:35.994Z,97357.41
2022-11-30T13:36:05.315Z,97359.13
2022-11-30T13:38:37.403Z,97352.78
2022-11-30T13:41:05.451Z,97356.75
2022-11-30T13:43:36.153Z,97357.06
2022-11-30T13:46:03.413Z,97364.56
2022-11-30T13:48:36.962Z,97351.28
2022-11-30T13:51:04.236Z,97355.34
2022-11-30T13:53:34.275Z,97358.72
2022-11-30T13:56:08.004Z,97357.31
2022-11-30T13:58:56.355Z,97353.69
2022-11-30T14:01:25.459Z,97350.78
2022-11-30T14:04:28.665Z,97361.72
2022-11-30T14:06:56.399Z,97355.94
2022-11-30T14:09:43.516Z,97353.81
2022-11-30T14:12:28.464Z,97362.06
2022-11-30T14:14:54.857Z,97362.56
2022-11-30T14:17:23.962Z,97371.06
2022-11-30T14:19:52.175Z,97360.56
2022-11-30T14:22:18.624Z,97367.03
2022-11-30T14:24:46.368Z,97362.78
2022-11-30T14:27:23.915Z,97367.66
2022-11-30T14:29:53.356Z,97364.97
2022-11-30T14:32:25.512Z,97371.38
2022-11-30T14:34:54.377Z,97363.28
2022-11-30T14:37:20.699Z,97363.22
2022-11-30T14:39:49.146Z,97364.66
2022-11-30T14:42:35.418Z,97363.72
2022-11-30T14:45:01.747Z,97362.34
2022-11-30T14:47:28.088Z,97370.63
2022-11-30T14:49:56.958Z,97367.22
2022-11-30T14:52:42.195Z,97366.59
2022-11-30T14:55:18.754Z,97368.59
2022-11-30T14:57:55.441Z,97366.22
2022-11-30T15:00:22.035Z,97370.34
2022-11-30T15:02:49.559Z,97367.41
2022-11-30T15:05:21.475Z,97374.47
2022-11-30T15:07:48.283Z,97361.63
2022-11-30T15:10:16.282Z,97359.56
2022-11-30T15:12:44.991Z,97367.38
2022-11-30T15:15:22.461Z,97369.84
2022-11-30T15:17:53.498Z,97371.28
2022-11-30T15:20:23.769Z,97380.72
2022-11-30T15:22:50.211Z,97373.53
2022-11-30T15:25:16.709Z,97382.94
2022-11-30T15:27:43.260Z,97375.28
2022-11-30T15:30:13.966Z,97373.22
2022-11-30T15:32:46.236Z,97374.22
2022-11-30T15:35:18.566Z,97379.78
2022-11-30T15:37:45.236Z,97382.38
2022-11-30T15:40:15.978Z,97390.25
2022-11-30T15:42:46.944Z,97390.44
2022-11-30T15:45:16.290Z,97386.91
2022-11-30T15:47:43.047Z,97383.94
2022-11-30T15:50:24.724Z,97390.25
2022-11-30T15:52:51.672Z,97387.00
2022-11-30T15:55:36.966Z,97391.63
2022-11-30T15:58:45.398Z,97382.38
2022-11-30T16:01:12.093Z,97396.09
2022-11-30T16:04:01.518Z,97401.91
2022-11-30T16:06:30.500Z,97388.94
2022-11-30T16:08:59.685Z,97399.66
2022-11-30T16:11:27.145Z,97395.81
2022-11-30T16:13:54.572Z,97394.03
2022-11-30T16:16:22.139Z,97399.84
2022-11-30T16:18:48.762Z,97399.66
2022-11-30T16:21:18.274Z,97395.81
2022-11-30T16:23:45.998Z,97399.44
2022-11-30T16:26:43.260Z,97403.69
2022-11-30T16:29:02.621Z,97393.69
2022-11-30T16:31:31.979Z,97393.47
2022-11-30T16:34:01.530Z,97389.44
2022-11-30T16:36:30.248Z,97395.78
2022-11-30T16:38:58.710Z,97401.19
2022-11-30T16:41:27.185Z,97398.66
2022-11-30T16:43:54.631Z,97398.81
2022-11-30T16:46:22.095Z,97403.25
2022-11-30T16:48:48.945Z,97406.03
2022-11-30T16:51:18.225Z,97401.16
2022-11-30T16:53:45.318Z,97402.81
2022-11-30T16:56:14.237Z,97406.53
2022-11-30T16:58:40.927Z,97406.44
2022-11-30T17:01:11.149Z,97400.75
2022-11-30T17:03:37.704Z,97401.66
2022-11-30T17:06:07.087Z,97399.72
2022-11-30T17:08:33.605Z,97407.28
2022-11-30T17:11:01.120Z,97405.63
2022-11-30T17:13:27.617Z,97408.00
2022-11-30T17:15:53.966Z,97410.72
2022-11-30T17:18:20.286Z,97409.88
2022-11-30T17:20:46.812Z,97418.09
2022-11-30T17:23:13.165Z,97407.28
2022-11-30T17:25:39.546Z,97422.31
2022-11-30T17:28:07.924Z,97414.94
2022-11-30T17:30:34.510Z,97420.16
2022-11-30T17:33:01.051Z,97417.66
2022-11-30T17:35:28.671Z,97429.38
2022-11-30T17:37:55.171Z,97422.84
2022-11-30T17:40:21.584Z,97420.25
2022-11-30T17:42:49.078Z,97427.84
2022-11-30T17:45:15.539Z,97428.06
2022-11-30T17:47:42.053Z,97424.84
2022-11-30T17:50:08.948Z,97427.94
2022-11-30T17:52:37.462Z,97427.63
2022-11-30T17:55:03.903Z,97436.75
2022-11-30T17:57:30.218Z,97432.88
2022-11-30T17:59:56.633Z,97432.91
2022-11-30T18:02:23.044Z,97436.31
2022-11-30T18:04:49.786Z,97432.06
2022-11-30T18:07:16.578Z,97435.47
2022-11-30T18:09:43.954Z,97444.31
2022-11-30T18:12:10.731Z,97443.03
2022-11-30T18:14:37.070Z,97443.31
2022-11-30T18:17:03.615Z,97442.53
2022-11-30T18:19:30.019Z,97443.47
2022-11-30T18:21:56.460Z,97440.03
2022-11-30T18:24:25.594Z,97437.13
2022-11-30T18:26:52.632Z,97440.56
2022-11-30T18:29:19.276Z,97438.47
2022-11-30T18:31:48.204Z,97437.56
2022-11-30T18:34:17.038Z,97435.25
2022-11-30T18:36:44.444Z,97441.28
2022-11-30T18:39:10.883Z,97443.75
2022-11-30T18:41:37.379Z,97447.50
2022-11-30T18:44:03.853Z,97447.50
2022-11-30T18:46:30.732Z,97457.03
2022-11-30T18:48:59.061Z,97456.72
2022-11-30T18:51:26.438Z,97453.63
2022-11-30T18:53:58.483Z,97460.66
2022-11-30T18:56:27.807Z,97463.91
2022-11-30T18:58:59.384Z,97461.09
2022-11-30T19:01:26.290Z,97462.16
2022-11-30T19:04:01.239Z,97452.50
2022-11-30T19:06:29.820Z,97452.88
2022-11-30T19:08:56.708Z,97453.31
2022-11-30T19:11:23.081Z,97447.00
2022-11-30T19:13:53.153Z,97454.34
2022-11-30T19:16:19.717Z,97446.78
2022-11-30T19:18:47.260Z,97447.50
2022-11-30T19:21:15.868Z,97460.16
2022-11-30T19:23:42.211Z,97460.66
2022-11-30T19:26:10.029Z,97457.81
2022-11-30T19:28:37.145Z,97462.13
2022-11-30T19:31:07.972Z,97452.50
2022-11-30T19:33:35.002Z,97450.84
2022-11-30T19:36:08.834Z,97441.72
2022-11-30T19:38:35.419Z,97446.50
2022-11-30T19:41:09.498Z,97453.13
2022-11-30T19:43:36.085Z,97457.28
2022-11-30T19:46:14.325Z,97449.09
2022-11-30T19:48:41.452Z,97456.13
2022-11-30T19:51:13.232Z,97461.09
2022-11-30T19:53:42.303Z,97448.94
2022-11-30T19:56:10.803Z,97453.31
2022-11-30T19:58:37.429Z,97451.25
2022-11-30T20:01:05.151Z,97452.50
2022-11-30T20:03:36.904Z,97452.59
2022-11-30T20:06:03.385Z,97452.03
2022-11-30T20:08:31.773Z,97448.00
2022-11-30T20:10:58.524Z,97454.25
2022-11-30T20:13:24.858Z,97443.75
2022-11-30T20:15:51.389Z,97442.31
2022-11-30T20:18:17.785Z,97452.09
2022-11-30T20:20:44.192Z,97451.34
2022-11-30T20:23:10.504Z,97457.66
2022-11-30T20:25:40.927Z,97454.97
2022-11-30T20:28:12.387Z,97454.56
2022-11-30T20:30:39.325Z,97450.56
2022-11-30T20:33:06.104Z,97449.84
2022-11-30T20:35:34.944Z,97448.59
2022-11-30T20:38:01.338Z,97443.50
2022-11-30T20:40:27.796Z,97452.63
2022-11-30T20:42:54.103Z,97447.22
2022-11-30T20:45:20.410Z,97456.38
2022-11-30T20:47:49.850Z,97453.69
2022-11-30T20:50:16.361Z,97453.81
2022-11-30T20:52:43.736Z,97451.84
2022-11-30T20:55:10.113Z,97457.25
2022-11-30T20:57:36.431Z,97456.00
2022-11-30T21:00:08.803Z,97456.00
2022-11-30T21:02:37.988Z,97457.88
2022-11-30T21:05:04.436Z,97454.63
2022-11-30T21:07:30.811Z,97462.84
2022-11-30T21:09:58.452Z,97460.97
2022-11-30T21:12:24.765Z,97460.66
2022-11-30T21:14:51.151Z,97456.59
2022-11-30T21:17:17.507Z,97467.59
2022-11-30T21:19:43.834Z,97465.03
2022-11-30T21:22:11.046Z,97466.66
2022-11-30T21:24:37.610Z,97478.50
2022-11-30T21:27:04.070Z,97474.44
2022-11-30T21:29:30.379Z,97478.59
2022-11-30T21:31:57.699Z,97470.81
2022-11-30T21:34:25.357Z,97468.91
2022-11-30T21:36:52.171Z,97471.94
2022-11-30T21:39:18.631Z,97464.66
2022-11-30T21:41:45.034Z,97464.44
2022-11-30T21:44:13.467Z,97467.16
2022-11-30T21:46:40.004Z,97469.63
2022-11-30T21:49:06.532Z,97468.22
2022-11-30T21:51:33.157Z,97469.06
2022-11-30T21:54:00.908Z,97473.00
2022-11-30T21:56:28.935Z,97466.97
2022-11-30T21:59:03.850Z,97477.03
2022-11-30T22:01:30.161Z,97479.22
2022-11-30T22:03:59.213Z,97468.63
2022-11-30T22:06:26.355Z,97470.72
2022-11-30T22:08:52.931Z,97464.06
2022-11-30T22:11:20.943Z,97463.91
2022-11-30T22:13:51.018Z,97469.50
2022-11-30T22:16:17.880Z,97465.34
2022-11-30T22:18:44.393Z,97473.22
2022-11-30T22:21:12.643Z,97471.69
2022-11-30T22:23:40.102Z,97467.63
2022-11-30T22:26:10.911Z,97457.78
2022-11-30T22:28:37.332Z,97452.94
2022-11-30T22:31:05.497Z,97450.88
2022-11-30T22:33:36.027Z,97450.22
2022-11-30T22:36:02.636Z,97455.84
2022-11-30T22:38:29.453Z,97459.69
2022-11-30T22:41:02.408Z,97457.09
2022-11-30T22:43:29.804Z,97464.13
2022-11-30T22:46:01.389Z,97462.69
2022-11-30T22:48:29.329Z,97459.56
2022-11-30T22:50:55.642Z,97458.63
2022-11-30T22:53:22.057Z,97462.56
2022-11-30T22:55:48.599Z,97464.66
2022-11-30T22:58:15.077Z,97463.50
2022-11-30T23:00:41.397Z,97452.94
2022-11-30T23:03:07.831Z,97453.13
2022-11-30T23:05:34.638Z,97452.72
2022-11-30T23:08:01.108Z,97446.50
2022-11-30T23:10:27.472Z,97446.09
2022-11-30T23:13:00.930Z,97440.38
2022-11-30T23:15:27.564Z,97428.03
2022-11-30T23:17:55.005Z,97444.84
2022-11-30T23:20:22.438Z,97440.72
2022-11-30T23:22:48.774Z,97447.34
2022-11-30T23:25:15.096Z,97439.25
2022-11-30T23:27:41.449Z,97443.41
2022-11-30T23:30:08.673Z,97434.06
2022-11-30T23:32:34.990Z,97432.09
2022-11-30T23:35:01.311Z,97428.06
2022-11-30T23:37:27.611Z,97432.50
2022-11-30T23:39:53.923Z,97426.59
2022-11-30T23:42:20.261Z,97433.66
2022-11-30T23:44:46.592Z,97425.56
2022-11-30T23:47:18.021Z,97429.72
2022-11-30T23:49:44.856Z,97426.88
2022-11-30T23:52:11.175Z,97426.50
2022-11-30T23:54:37.487Z,97421.00
2022-11-30T23:57:03.822Z,97425.16
2022-11-30T23:59:30.227Z,97423.59
